• Join FlightAware (Why Join?)
  • Login
  • US Flag 
01:46PM EDT


 

Airport Tracker/Info


-or-


 

Live Flight TrackerFlight Track Log ✈ KAP528 ✈ 18-Aug-2013 ✈ KEWB - KACK

Flight Track Log - Related Links

Times and Time Zones

All times are in EDT time to prevent confusion due to time zone crossing. See the KAP528 flight status page for this flight to view local times or setup timezone preferences in your user account.

Time Position Orientation Groundspeed Altitude Reporting Facility
EDT Latitude Longitude Course Direction KTS MPH feet Rate Location/Type
06:06PM 41.6558 -70.8647 100° East 138 159 2,200  Level Boston Center
06:08PM 41.7148 -70.8167 31° Northeast  Level FlightAware Approximate
06:15PM 41.5376 -70.5241 79° East  Level Estimated
06:16PM 41.5122 -70.4824 156° South  Level Estimated
06:17PM 41.5047 -70.4297 101° East  Level FlightAware Approximate
06:18PM 41.4971 -70.3770 101° East  Level FlightAware Approximate
06:19PM 41.4895 -70.3242 101° East  Level FlightAware Approximate
06:20PM 41.4819 -70.2715 101° East  Level FlightAware Approximate
06:21PM 41.4743 -70.2188 101° East  Level FlightAware Approximate
06:22PM 41.4666 -70.1662 101° East  Level FlightAware Approximate
06:23PM 41.4745 -70.2188 281° West  Level FlightAware Approximate
06:24PM 41.4666 -70.1662 101° East  Level FlightAware Approximate
06:25PM 41.4745 -70.2188 281° West  Level FlightAware Approximate
06:26PM 41.4666 -70.1662 101° East  Level FlightAware Approximate
06:27PM 41.4540 -70.1667 180° South  Level FlightAware Approximate
06:28PM 41.4154 -70.1564 157° South  Level FlightAware Approximate
06:29PM 41.3784 -70.1352 157° South  Level FlightAware Approximate
06:30PM 41.3414 -70.1141 157° South  Level FlightAware Approximate
06:31PM 41.3051 -70.0913 151° Southeast  Level FlightAware Approximate
06:32PM 41.2701 -70.0650 151° Southeast  Level FlightAware Approximate
06:33PM 41.2500 -70.0500 151° Southeast  Level FlightAware Approximate
06:34PM 41.2531 -70.0603 151° Southeast  Level Estimated
06:35PM 41.2531 -70.0603 151° Southeast  Level Estimated
06:36PM 41.2531 -70.0603 151° Southeast  Level Estimated
06:37PM 41.2531 -70.0603 151° Southeast  Level Estimated
06:38PM 41.2531 -70.0603 151° Southeast  Level Estimated
06:39PM 41.2531 -70.0603 151° Southeast  Level Estimated